createdAt,value
2019-05-09T00:02:33.761Z,77.93
2019-05-09T00:05:03.709Z,77.85
2019-05-09T00:07:33.826Z,77.68
2019-05-09T00:10:04.013Z,77.63
2019-05-09T00:12:33.731Z,77.67
2019-05-09T00:15:04.467Z,77.78
2019-05-09T00:17:34.306Z,77.77
2019-05-09T00:20:10.847Z,77.68
2019-05-09T00:22:40.100Z,77.69
2019-05-09T00:25:10.340Z,77.57
2019-05-09T00:27:39.654Z,77.75
2019-05-09T00:30:09.195Z,77.83
2019-05-09T00:32:40.261Z,77.67
2019-05-09T00:35:26.637Z,77.62
2019-05-09T00:37:58.319Z,77.58
2019-05-09T00:40:27.761Z,77.58
2019-05-09T00:42:56.972Z,77.36
2019-05-09T00:45:45.198Z,77.40
2019-05-09T00:48:16.845Z,77.62
2019-05-09T00:50:46.111Z,77.75
2019-05-09T00:53:15.719Z,77.75
2019-05-09T00:55:45.606Z,77.78
2019-05-09T00:58:15.092Z,77.78
2019-05-09T01:00:45.069Z,77.79
2019-05-09T01:03:14.389Z,77.80
2019-05-09T01:05:44.117Z,77.80
2019-05-09T01:08:16.322Z,77.77
2019-05-09T01:10:45.636Z,77.73
2019-05-09T01:13:14.940Z,77.77
2019-05-09T01:15:44.359Z,77.83
2019-05-09T01:18:16.114Z,77.94
2019-05-09T01:20:45.344Z,78.02
2019-05-09T01:23:14.620Z,78.04
2019-05-09T01:25:43.965Z,78.06
2019-05-09T01:28:14.030Z,77.98
2019-05-09T01:30:43.952Z,77.91
2019-05-09T01:33:27.592Z,77.86
2019-05-09T01:35:57.259Z,78.00
2019-05-09T01:38:26.889Z,77.96
2019-05-09T01:40:56.405Z,77.80
2019-05-09T01:43:25.991Z,77.65
2019-05-09T01:45:55.566Z,77.60
2019-05-09T01:48:25.219Z,77.83
2019-05-09T01:50:54.475Z,78.10
2019-05-09T01:53:33.609Z,78.14
2019-05-09T01:56:03.849Z,78.24
2019-05-09T01:58:34.573Z,78.13
2019-05-09T02:01:06.499Z,78.19
2019-05-09T02:03:37.027Z,78.11
2019-05-09T02:06:06.778Z,78.33
2019-05-09T02:08:36.552Z,78.39
2019-05-09T02:11:05.782Z,78.39
2019-05-09T02:13:35.392Z,78.65
2019-05-09T02:16:36.082Z,78.82
2019-05-09T02:19:20.107Z,78.85
2019-05-09T02:21:49.838Z,78.91
2019-05-09T02:24:19.439Z,79.03
2019-05-09T02:26:48.692Z,79.02
2019-05-09T02:29:17.999Z,78.92
2019-05-09T02:31:47.630Z,78.81
2019-05-09T02:34:17.247Z,78.95
2019-05-09T02:36:49.488Z,79.11
2019-05-09T02:39:18.877Z,79.25
2019-05-09T02:42:00.989Z,79.38
2019-05-09T02:44:19.933Z,79.46
2019-05-09T02:47:14.039Z,79.64
2019-05-09T02:49:44.432Z,79.77
2019-05-09T02:52:13.990Z,79.79
2019-05-09T02:54:43.620Z,79.87
2019-05-09T02:57:12.911Z,79.73
2019-05-09T03:00:10.776Z,79.67
2019-05-09T03:02:59.518Z,79.71
2019-05-09T03:05:30.405Z,79.78
2019-05-09T03:07:59.920Z,79.79
2019-05-09T03:10:29.703Z,79.87
2019-05-09T03:12:59.663Z,79.91
2019-05-09T03:15:29.533Z,79.92
2019-05-09T03:18:00.135Z,79.88
2019-05-09T03:21:08.988Z,79.90
2019-05-09T03:23:38.916Z,80.15
2019-05-09T03:26:10.363Z,80.31
2019-05-09T03:29:04.483Z,80.44
2019-05-09T03:31:34.271Z,80.46
2019-05-09T03:34:03.545Z,80.51
2019-05-09T03:36:33.567Z,80.59
2019-05-09T03:39:03.116Z,80.57
2019-05-09T03:41:32.685Z,80.52
2019-05-09T03:44:02.331Z,80.41
2019-05-09T03:46:51.739Z,80.33
2019-05-09T03:49:22.191Z,80.28
2019-05-09T03:51:51.430Z,80.34
2019-05-09T03:54:21.003Z,80.48
2019-05-09T03:56:57.235Z,80.44
2019-05-09T03:59:27.866Z,80.45
2019-05-09T04:01:59.038Z,80.60
2019-05-09T04:04:29.836Z,80.64
2019-05-09T04:07:00.863Z,80.78
2019-05-09T04:09:30.093Z,80.83
2019-05-09T04:12:00.299Z,80.93
2019-05-09T04:14:32.635Z,80.95
2019-05-09T04:17:02.252Z,80.93
2019-05-09T04:19:33.249Z,80.90
2019-05-09T04:22:02.596Z,80.97
2019-05-09T04:24:34.099Z,81.01
2019-05-09T04:27:10.335Z,81.11
2019-05-09T04:29:41.599Z,81.20
2019-05-09T04:32:11.256Z,81.24
2019-05-09T04:34:40.942Z,81.25
2019-05-09T04:37:12.090Z,81.21
2019-05-09T04:39:41.268Z,81.08
2019-05-09T04:42:10.911Z,80.94
2019-05-09T04:45:03.206Z,80.61
2019-05-09T04:47:29.212Z,80.13
2019-05-09T04:49:58.517Z,79.79
2019-05-09T04:52:28.083Z,79.60
2019-05-09T04:54:58.442Z,79.38
2019-05-09T04:57:27.928Z,79.09
2019-05-09T04:59:57.585Z,78.80
2019-05-09T05:02:48.463Z,78.77
2019-05-09T05:05:18.195Z,78.30
2019-05-09T05:07:48.164Z,78.10
2019-05-09T05:10:18.410Z,76.99
2019-05-09T05:12:48.427Z,76.03
2019-05-09T05:15:20.328Z,75.27
2019-05-09T05:17:48.865Z,74.85
2019-05-09T05:20:21.948Z,75.15
2019-05-09T05:22:58.140Z,74.84
2019-05-09T05:25:28.146Z,74.94
2019-05-09T05:27:58.189Z,74.50
2019-05-09T05:30:28.470Z,74.07
2019-05-09T05:33:02.032Z,73.46
2019-05-09T05:35:37.761Z,73.82
2019-05-09T05:38:08.499Z,74.00
2019-05-09T05:40:45.671Z,72.64
2019-05-09T05:43:09.092Z,72.17
2019-05-09T05:45:51.316Z,71.40
2019-05-09T05:48:24.237Z,70.99
2019-05-09T05:50:53.515Z,70.03
2019-05-09T05:53:22.789Z,69.50
2019-05-09T05:55:52.773Z,67.58
2019-05-09T05:58:22.252Z,66.09
2019-05-09T06:00:53.748Z,65.23
2019-05-09T06:03:24.105Z,63.33
2019-05-09T06:05:53.705Z,63.70
2019-05-09T06:08:22.992Z,62.12
2019-05-09T06:10:52.215Z,57.65
2019-05-09T06:13:21.846Z,55.15
2019-05-09T06:15:53.067Z,55.99
2019-05-09T06:18:22.583Z,57.73
2019-05-09T06:20:51.900Z,60.59
2019-05-09T06:23:21.440Z,62.31
2019-05-09T06:25:50.705Z,62.66
2019-05-09T06:28:20.511Z,62.89
2019-05-09T06:30:49.827Z,62.70
2019-05-09T06:33:19.044Z,60.72
2019-05-09T06:35:48.681Z,60.42
2019-05-09T06:38:18.893Z,61.17
2019-05-09T06:40:48.249Z,56.29
2019-05-09T06:43:18.736Z,47.08
2019-05-09T06:46:22.671Z,41.75
2019-05-09T06:48:52.281Z,40.52
2019-05-09T06:51:21.541Z,37.98
2019-05-09T06:53:50.782Z,37.03
2019-05-09T06:56:20.414Z,39.76
2019-05-09T06:58:49.758Z,47.58
2019-05-09T07:01:37.957Z,52.41
2019-05-09T07:04:12.370Z,55.95
2019-05-09T07:06:50.268Z,61.04
2019-05-09T07:09:27.997Z,61.92
2019-05-09T07:11:58.611Z,62.09
2019-05-09T07:14:32.344Z,62.36
2019-05-09T07:16:59.958Z,63.23
2019-05-09T07:19:29.679Z,62.17
2019-05-09T07:22:21.260Z,62.37
2019-05-09T07:25:21.730Z,62.59
2019-05-09T07:27:51.443Z,62.91
2019-05-09T07:30:43.013Z,62.47
2019-05-09T07:33:34.617Z,60.88
2019-05-09T07:36:03.912Z,62.63
2019-05-09T07:38:33.443Z,61.82
2019-05-09T07:41:02.813Z,62.22
2019-05-09T07:43:32.083Z,62.34
2019-05-09T07:46:05.544Z,63.04
2019-05-09T07:48:38.060Z,62.84
2019-05-09T07:51:08.025Z,61.78
2019-05-09T07:53:38.180Z,61.61
2019-05-09T07:56:08.655Z,61.25
2019-05-09T07:58:39.280Z,61.12
2019-05-09T08:01:08.869Z,61.11
2019-05-09T08:03:38.633Z,61.15
2019-05-09T08:06:08.976Z,60.69
2019-05-09T08:08:38.741Z,60.15
2019-05-09T08:11:09.080Z,59.88
2019-05-09T08:13:39.744Z,59.49
2019-05-09T08:16:14.130Z,59.65
2019-05-09T08:18:40.520Z,59.70
2019-05-09T08:21:09.790Z,59.33
2019-05-09T08:23:39.414Z,59.62
2019-05-09T08:26:09.078Z,59.35
2019-05-09T08:28:39.206Z,59.20
2019-05-09T08:31:08.641Z,58.80
2019-05-09T08:33:38.328Z,58.08
2019-05-09T08:36:08.858Z,57.43
2019-05-09T08:38:39.113Z,56.64
2019-05-09T08:41:09.784Z,56.10
2019-05-09T08:43:40.664Z,56.96
2019-05-09T08:46:10.204Z,56.70
2019-05-09T08:48:40.869Z,55.83
2019-05-09T08:51:14.044Z,55.34
2019-05-09T08:53:43.314Z,54.93
2019-05-09T08:56:13.162Z,54.64
2019-05-09T08:58:42.896Z,54.25
2019-05-09T09:01:13.197Z,54.22
2019-05-09T09:03:42.509Z,54.79
2019-05-09T09:06:11.906Z,55.32
2019-05-09T09:08:43.011Z,54.44
2019-05-09T09:11:13.492Z,53.49
2019-05-09T09:13:43.101Z,52.30
2019-05-09T09:16:18.709Z,53.23
2019-05-09T09:18:44.786Z,51.26
2019-05-09T09:21:14.054Z,50.72
2019-05-09T09:23:47.177Z,51.65
2019-05-09T09:26:15.066Z,51.42
2019-05-09T09:28:48.483Z,51.24
2019-05-09T09:31:18.126Z,51.17
2019-05-09T09:33:48.139Z,52.09
2019-05-09T09:36:18.003Z,51.90
2019-05-09T09:38:48.163Z,50.85
2019-05-09T09:41:19.219Z,50.19
2019-05-09T09:43:48.458Z,50.81
2019-05-09T09:46:18.324Z,49.64
2019-05-09T09:48:48.157Z,49.38
2019-05-09T09:51:18.693Z,49.12
2019-05-09T09:53:49.068Z,50.01
2019-05-09T09:56:22.393Z,51.46
2019-05-09T09:59:00.952Z,50.52
2019-05-09T10:01:33.636Z,50.69
2019-05-09T10:04:20.678Z,49.34
2019-05-09T10:06:48.074Z,49.58
2019-05-09T10:09:17.620Z,48.32
2019-05-09T10:11:48.298Z,48.81
2019-05-09T10:14:28.354Z,49.77
2019-05-09T10:17:17.963Z,50.89
2019-05-09T10:19:55.027Z,50.51
2019-05-09T10:22:26.199Z,49.69
2019-05-09T10:24:58.620Z,49.76
2019-05-09T10:27:28.352Z,48.86
2019-05-09T10:29:57.858Z,48.09
2019-05-09T10:32:28.864Z,46.95
2019-05-09T10:34:58.314Z,47.23
2019-05-09T10:37:27.857Z,46.32
2019-05-09T10:39:58.043Z,47.41
2019-05-09T10:42:48.130Z,48.07
2019-05-09T10:45:40.707Z,48.77
2019-05-09T10:48:09.815Z,46.84
2019-05-09T10:50:44.283Z,48.99
2019-05-09T10:53:10.765Z,47.29
2019-05-09T10:56:40.833Z,44.28
2019-05-09T10:59:10.049Z,42.55
2019-05-09T11:01:39.321Z,43.77
2019-05-09T11:04:08.599Z,43.48
2019-05-09T11:06:38.557Z,44.60
2019-05-09T11:09:09.343Z,46.10
2019-05-09T11:11:38.849Z,45.67
2019-05-09T11:14:08.766Z,44.54
2019-05-09T11:16:45.961Z,46.54
2019-05-09T11:19:09.567Z,45.39
2019-05-09T11:21:39.396Z,44.14
2019-05-09T11:24:11.397Z,44.87
2019-05-09T11:26:40.649Z,44.18
2019-05-09T11:29:11.432Z,44.60
2019-05-09T11:31:40.705Z,44.54
2019-05-09T11:34:11.863Z,44.23
2019-05-09T11:36:44.036Z,44.91
2019-05-09T11:39:13.286Z,44.20
2019-05-09T11:41:44.900Z,44.62
2019-05-09T11:44:14.181Z,45.45
2019-05-09T11:46:43.430Z,45.72
2019-05-09T11:49:13.014Z,45.82
2019-05-09T11:51:42.619Z,46.89
2019-05-09T11:54:11.910Z,46.98
2019-05-09T11:56:41.266Z,46.73
2019-05-09T11:59:10.618Z,46.35
2019-05-09T12:01:40.052Z,46.90
2019-05-09T12:04:12.122Z,46.70
2019-05-09T12:06:43.739Z,45.50
2019-05-09T12:09:14.787Z,46.18
2019-05-09T12:11:44.869Z,46.50
2019-05-09T12:14:14.325Z,46.17
2019-05-09T12:16:47.822Z,45.80
2019-05-09T12:19:17.985Z,45.43
2019-05-09T12:21:48.407Z,44.31
2019-05-09T12:24:18.623Z,43.88
2019-05-09T12:26:48.434Z,43.57
2019-05-09T12:29:19.698Z,43.29
2019-05-09T12:31:48.866Z,42.96
2019-05-09T12:34:19.277Z,43.21
2019-05-09T12:36:49.649Z,43.41
2019-05-09T12:39:20.981Z,43.75
2019-05-09T12:41:51.040Z,43.64
2019-05-09T12:44:24.935Z,43.13
2019-05-09T12:46:53.280Z,43.44
2019-05-09T12:49:22.616Z,42.06
2019-05-09T12:51:51.829Z,41.07
2019-05-09T12:54:22.870Z,41.78
2019-05-09T12:56:52.214Z,41.11
2019-05-09T12:59:21.898Z,41.00
2019-05-09T13:01:51.631Z,40.91
2019-05-09T13:04:21.138Z,39.82
2019-05-09T13:06:50.732Z,40.28
2019-05-09T13:09:19.918Z,40.59
2019-05-09T13:11:49.227Z,41.26
2019-05-09T13:14:19.247Z,40.97
2019-05-09T13:17:17.955Z,40.92
2019-05-09T13:19:48.657Z,41.30
2019-05-09T13:22:18.494Z,40.76
2019-05-09T13:24:47.892Z,41.64
2019-05-09T13:27:18.928Z,42.10
2019-05-09T13:29:49.283Z,42.56
2019-05-09T13:32:19.030Z,42.55
2019-05-09T13:34:48.895Z,41.33
2019-05-09T13:37:18.876Z,42.27
2019-05-09T13:39:50.024Z,41.21
2019-05-09T13:42:20.895Z,40.26
2019-05-09T13:44:50.591Z,40.61
2019-05-09T13:47:19.840Z,40.58
2019-05-09T13:49:50.920Z,40.53
2019-05-09T13:52:20.158Z,40.41
2019-05-09T13:54:49.651Z,40.15
2019-05-09T13:57:19.031Z,39.94
2019-05-09T13:59:49.929Z,39.94
2019-05-09T14:02:19.513Z,40.62
2019-05-09T14:04:49.079Z,39.77
2019-05-09T14:07:19.396Z,40.51
2019-05-09T14:09:48.876Z,39.54
2019-05-09T14:12:18.459Z,38.19
2019-05-09T14:14:47.849Z,38.68
2019-05-09T14:17:19.197Z,38.49
2019-05-09T14:19:51.146Z,38.86
2019-05-09T14:22:20.903Z,38.41
2019-05-09T14:24:50.143Z,37.92
2019-05-09T14:27:22.929Z,38.64
2019-05-09T14:29:52.216Z,37.96
2019-05-09T14:32:21.890Z,39.19
2019-05-09T14:34:51.392Z,41.21
2019-05-09T14:37:20.667Z,39.52
2019-05-09T14:39:58.396Z,39.94
2019-05-09T14:42:21.447Z,38.73
2019-05-09T14:44:50.703Z,39.43
2019-05-09T14:47:21.839Z,39.80
2019-05-09T14:49:51.601Z,40.84
2019-05-09T14:52:21.238Z,40.25
2019-05-09T14:54:51.226Z,39.47
2019-05-09T14:57:22.702Z,39.60
2019-05-09T14:59:51.973Z,40.74
2019-05-09T15:02:22.837Z,40.67
2019-05-09T15:04:52.374Z,39.54
2019-05-09T15:07:21.621Z,39.40
2019-05-09T15:09:54.020Z,38.33
2019-05-09T15:12:23.429Z,38.90
2019-05-09T15:14:54.941Z,39.76
2019-05-09T15:17:24.543Z,39.20
2019-05-09T15:20:00.069Z,38.81
2019-05-09T15:22:24.867Z,38.97
2019-05-09T15:24:54.101Z,39.04
2019-05-09T15:27:25.142Z,39.30
2019-05-09T15:29:58.481Z,39.81
2019-05-09T15:32:27.982Z,40.01
2019-05-09T15:34:59.634Z,40.33
2019-05-09T15:37:29.525Z,40.02
2019-05-09T15:39:59.081Z,41.45
2019-05-09T15:42:30.553Z,42.33
2019-05-09T15:45:00.447Z,43.58
2019-05-09T15:47:34.738Z,45.43
2019-05-09T15:50:16.571Z,46.95
2019-05-09T15:52:38.236Z,47.17
2019-05-09T15:55:09.451Z,47.91
2019-05-09T15:57:38.805Z,47.66
2019-05-09T16:00:09.975Z,48.23
2019-05-09T16:02:39.394Z,48.34
2019-05-09T16:05:10.577Z,48.11
2019-05-09T16:07:40.064Z,48.69
2019-05-09T16:10:09.962Z,48.03
2019-05-09T16:12:39.623Z,47.44
2019-05-09T16:15:10.597Z,47.40
2019-05-09T16:17:40.462Z,46.96
2019-05-09T16:20:10.205Z,46.31
2019-05-09T16:22:39.814Z,45.95
2019-05-09T16:25:10.203Z,46.11
2019-05-09T16:27:40.709Z,46.13
2019-05-09T16:30:10.538Z,46.02
2019-05-09T16:32:40.791Z,46.43
2019-05-09T16:35:10.291Z,46.41
2019-05-09T16:37:56.954Z,45.99
2019-05-09T16:40:10.928Z,46.21
2019-05-09T16:42:40.267Z,46.08
2019-05-09T16:45:10.379Z,46.35
2019-05-09T16:47:41.465Z,45.57
2019-05-09T16:50:12.352Z,44.60
2019-05-09T16:52:43.741Z,44.46
2019-05-09T16:55:18.119Z,45.42
2019-05-09T16:57:48.155Z,45.18
2019-05-09T17:00:31.666Z,46.03
2019-05-09T17:03:02.741Z,45.75
2019-05-09T17:05:33.792Z,45.95
2019-05-09T17:08:03.125Z,46.13
2019-05-09T17:10:32.817Z,45.08
2019-05-09T17:13:02.096Z,44.57
2019-05-09T17:15:31.341Z,44.79
2019-05-09T17:18:00.632Z,45.21
2019-05-09T17:20:40.600Z,45.30
2019-05-09T17:23:17.806Z,45.71
2019-05-09T17:25:48.013Z,46.16
2019-05-09T17:28:18.030Z,46.84
2019-05-09T17:30:49.719Z,47.53
2019-05-09T17:33:19.361Z,49.45
2019-05-09T17:35:50.792Z,50.96
2019-05-09T17:38:20.451Z,52.00
2019-05-09T17:40:50.220Z,52.50
2019-05-09T17:43:20.133Z,53.34
2019-05-09T17:45:49.439Z,54.05
2019-05-09T17:48:21.117Z,55.33
2019-05-09T17:50:51.379Z,55.86
2019-05-09T17:53:21.219Z,56.79
2019-05-09T17:55:52.659Z,56.96
2019-05-09T17:58:29.242Z,58.32
2019-05-09T18:00:53.439Z,60.65
2019-05-09T18:03:23.123Z,63.89
2019-05-09T18:05:52.374Z,66.80
2019-05-09T18:08:22.155Z,66.42
2019-05-09T18:10:53.451Z,67.20
2019-05-09T18:13:23.755Z,68.48
2019-05-09T18:15:53.428Z,67.55
2019-05-09T18:18:22.696Z,67.10
2019-05-09T18:20:52.563Z,67.25
2019-05-09T18:23:24.097Z,67.34
2019-05-09T18:25:53.327Z,68.24
2019-05-09T18:28:24.261Z,67.62
2019-05-09T18:30:53.558Z,66.89
2019-05-09T18:33:41.762Z,66.74
2019-05-09T18:36:11.317Z,67.20
2019-05-09T18:38:40.715Z,68.26
2019-05-09T18:41:10.346Z,69.44
2019-05-09T18:43:41.663Z,70.29
2019-05-09T18:46:12.465Z,71.65
2019-05-09T18:48:42.111Z,72.08
2019-05-09T18:51:12.379Z,71.94
2019-05-09T18:53:42.041Z,71.77
2019-05-09T18:56:11.680Z,71.86
2019-05-09T18:58:41.306Z,71.19
2019-05-09T19:01:11.188Z,70.81
2019-05-09T19:03:40.802Z,70.92
2019-05-09T19:06:11.029Z,70.84
2019-05-09T19:08:40.301Z,71.19
2019-05-09T19:11:11.695Z,71.65
2019-05-09T19:13:42.308Z,71.90
2019-05-09T19:16:40.345Z,71.79
2019-05-09T19:19:19.632Z,72.79
2019-05-09T19:21:52.840Z,73.90
2019-05-09T19:24:22.392Z,74.10
2019-05-09T19:26:53.070Z,74.49
2019-05-09T19:29:23.820Z,74.75
2019-05-09T19:31:53.246Z,74.91
2019-05-09T19:34:43.310Z,74.38
2019-05-09T19:37:13.394Z,74.10
2019-05-09T19:39:43.885Z,73.79
2019-05-09T19:42:14.327Z,73.63
2019-05-09T19:44:43.957Z,73.48
2019-05-09T19:47:14.526Z,73.06
2019-05-09T19:49:43.808Z,72.88
2019-05-09T19:52:13.571Z,72.64
2019-05-09T19:54:44.926Z,72.03
2019-05-09T19:57:16.506Z,71.67
2019-05-09T19:59:45.783Z,71.57
2019-05-09T20:02:18.685Z,71.86
2019-05-09T20:04:50.212Z,71.79
2019-05-09T20:07:19.471Z,71.35
2019-05-09T20:09:54.441Z,71.09
2019-05-09T20:12:42.903Z,71.19
2019-05-09T20:15:14.905Z,71.42
2019-05-09T20:17:44.516Z,71.63
2019-05-09T20:20:13.911Z,71.75
2019-05-09T20:22:52.414Z,72.04
2019-05-09T20:25:15.700Z,72.37
2019-05-09T20:27:44.977Z,72.67
2019-05-09T20:30:15.720Z,72.76
2019-05-09T20:32:45.360Z,72.81
2019-05-09T20:35:14.902Z,73.11
2019-05-09T20:37:44.489Z,73.61
2019-05-09T20:40:14.438Z,73.49
2019-05-09T20:42:44.483Z,73.91
2019-05-09T20:45:14.452Z,74.17
2019-05-09T20:47:44.295Z,74.34
2019-05-09T20:50:13.888Z,74.43
2019-05-09T20:52:43.312Z,74.85
2019-05-09T20:55:15.207Z,75.25
2019-05-09T20:57:45.794Z,75.33
2019-05-09T21:00:15.213Z,75.16
2019-05-09T21:02:45.102Z,74.91
2019-05-09T21:05:15.126Z,74.48
2019-05-09T21:07:44.859Z,74.68
2019-05-09T21:10:14.418Z,74.93
2019-05-09T21:12:43.971Z,75.12
2019-05-09T21:15:13.901Z,75.02
2019-05-09T21:17:44.333Z,75.10
2019-05-09T21:20:14.153Z,75.16
2019-05-09T21:22:44.045Z,75.10
2019-05-09T21:25:13.481Z,75.17
2019-05-09T21:27:43.384Z,75.21
2019-05-09T21:30:13.139Z,75.12
2019-05-09T21:32:42.653Z,75.36
2019-05-09T21:35:13.741Z,75.33
2019-05-09T21:37:43.012Z,75.53
2019-05-09T21:40:12.501Z,76.27
2019-05-09T21:42:41.829Z,76.57
2019-05-09T21:45:12.429Z,76.60
2019-05-09T21:47:42.824Z,76.62
2019-05-09T21:50:12.530Z,76.67
2019-05-09T21:52:42.242Z,76.67
2019-05-09T21:55:11.495Z,76.79
2019-05-09T21:57:41.031Z,76.65
2019-05-09T22:00:14.487Z,76.75
2019-05-09T22:02:43.768Z,76.82
2019-05-09T22:05:14.073Z,76.78
2019-05-09T22:07:44.487Z,76.67
2019-05-09T22:10:15.466Z,76.65
2019-05-09T22:12:46.557Z,76.88
2019-05-09T22:15:17.434Z,76.92
2019-05-09T22:17:47.695Z,77.03
2019-05-09T22:20:17.847Z,77.15
2019-05-09T22:22:47.135Z,77.15
2019-05-09T22:25:16.633Z,77.13
2019-05-09T22:27:46.395Z,77.07
2019-05-09T22:30:18.339Z,77.16
2019-05-09T22:32:47.678Z,77.07
2019-05-09T22:35:18.815Z,77.16
2019-05-09T22:37:49.116Z,77.34
2019-05-09T22:40:18.663Z,77.32
2019-05-09T22:42:49.876Z,77.35
2019-05-09T22:45:21.019Z,77.43
2019-05-09T22:47:51.661Z,77.31
2019-05-09T22:50:20.973Z,77.43
2019-05-09T22:52:51.424Z,77.49
2019-05-09T22:55:20.691Z,77.57
2019-05-09T22:57:51.844Z,77.56
2019-05-09T23:00:21.412Z,77.58
2019-05-09T23:02:50.714Z,77.24
2019-05-09T23:05:19.951Z,77.45
2019-05-09T23:07:49.552Z,77.53
2019-05-09T23:10:19.916Z,77.32
2019-05-09T23:12:51.205Z,77.17
2019-05-09T23:15:21.045Z,76.77
2019-05-09T23:17:50.716Z,76.59
2019-05-09T23:20:38.335Z,76.31
2019-05-09T23:23:28.000Z,76.39
2019-05-09T23:25:59.334Z,76.83
2019-05-09T23:28:28.933Z,77.13
2019-05-09T23:31:00.735Z,77.26
2019-05-09T23:33:34.663Z,77.17
2019-05-09T23:36:04.290Z,77.28
2019-05-09T23:38:33.967Z,77.07
2019-05-09T23:41:03.919Z,77.02
2019-05-09T23:43:33.166Z,76.86
2019-05-09T23:46:04.278Z,76.67
2019-05-09T23:48:34.651Z,76.73
2019-05-09T23:51:03.891Z,76.67
2019-05-09T23:53:37.420Z,76.58
2019-05-09T23:56:25.843Z,76.91
2019-05-09T23:59:13.534Z,77.24
